sensor_id;sensor_type;location;lat;lon;timestamp;P1;durP1;ratioP1;P2;durP2;ratioP2
15342;SDS011;7771;48.478;8.936;2022-07-29T00:00:04;8.23;;;7.03;;
15342;SDS011;7771;48.478;8.936;2022-07-29T00:02:30;9.48;;;7.32;;
15342;SDS011;7771;48.478;8.936;2022-07-29T00:04:57;7.85;;;7.07;;
15342;SDS011;7771;48.478;8.936;2022-07-29T00:07:23;7.82;;;7.12;;
15342;SDS011;7771;48.478;8.936;2022-07-29T00:09:50;8.25;;;7.45;;
15342;SDS011;7771;48.478;8.936;2022-07-29T00:12:17;7.72;;;6.93;;
15342;SDS011;7771;48.478;8.936;2022-07-29T00:14:44;9.18;;;6.55;;
15342;SDS011;7771;48.478;8.936;2022-07-29T00:17:12;7.80;;;6.90;;
15342;SDS011;7771;48.478;8.936;2022-07-29T00:19:39;8.77;;;7.65;;
15342;SDS011;7771;48.478;8.936;2022-07-29T00:22:06;10.50;;;7.32;;
15342;SDS011;7771;48.478;8.936;2022-07-29T00:24:32;10.60;;;7.43;;
15342;SDS011;7771;48.478;8.936;2022-07-29T00:26:59;10.02;;;7.97;;
15342;SDS011;7771;48.478;8.936;2022-07-29T00:29:25;9.43;;;8.43;;
15342;SDS011;7771;48.478;8.936;2022-07-29T00:31:52;8.77;;;7.90;;
15342;SDS011;7771;48.478;8.936;2022-07-29T00:34:19;8.23;;;7.05;;
15342;SDS011;7771;48.478;8.936;2022-07-29T00:36:51;8.10;;;7.40;;
15342;SDS011;7771;48.478;8.936;2022-07-29T00:39:18;7.55;;;6.85;;
15342;SDS011;7771;48.478;8.936;2022-07-29T00:41:46;7.47;;;6.78;;
15342;SDS011;7771;48.478;8.936;2022-07-29T00:44:13;7.75;;;7.00;;
15342;SDS011;7771;48.478;8.936;2022-07-29T00:46:39;7.75;;;6.97;;
15342;SDS011;7771;48.478;8.936;2022-07-29T00:49:07;6.97;;;6.28;;
15342;SDS011;7771;48.478;8.936;2022-07-29T00:51:35;5.87;;;5.37;;
15342;SDS011;7771;48.478;8.936;2022-07-29T00:54:02;6.18;;;5.35;;
15342;SDS011;7771;48.478;8.936;2022-07-29T00:56:30;5.12;;;4.62;;
15342;SDS011;7771;48.478;8.936;2022-07-29T00:58:57;5.43;;;4.95;;
15342;SDS011;7771;48.478;8.936;2022-07-29T01:01:23;6.37;;;5.78;;
15342;SDS011;7771;48.478;8.936;2022-07-29T01:03:51;5.80;;;5.28;;
15342;SDS011;7771;48.478;8.936;2022-07-29T01:06:18;5.97;;;5.45;;
15342;SDS011;7771;48.478;8.936;2022-07-29T01:08:46;6.80;;;5.50;;
15342;SDS011;7771;48.478;8.936;2022-07-29T01:11:13;5.95;;;5.35;;
15342;SDS011;7771;48.478;8.936;2022-07-29T01:13:40;7.72;;;5.65;;
15342;SDS011;7771;48.478;8.936;2022-07-29T01:16:10;8.68;;;6.62;;
15342;SDS011;7771;48.478;8.936;2022-07-29T01:18:39;7.00;;;6.40;;
15342;SDS011;7771;48.478;8.936;2022-07-29T01:21:09;8.65;;;7.40;;
15342;SDS011;7771;48.478;8.936;2022-07-29T01:23:40;7.32;;;6.70;;
15342;SDS011;7771;48.478;8.936;2022-07-29T01:26:14;7.37;;;6.72;;
15342;SDS011;7771;48.478;8.936;2022-07-29T01:28:55;8.60;;;7.37;;
15342;SDS011;7771;48.478;8.936;2022-07-29T01:31:25;7.95;;;7.15;;
15342;SDS011;7771;48.478;8.936;2022-07-29T01:33:53;8.25;;;7.10;;
15342;SDS011;7771;48.478;8.936;2022-07-29T01:36:22;7.30;;;6.70;;
15342;SDS011;7771;48.478;8.936;2022-07-29T01:38:48;7.22;;;6.62;;
15342;SDS011;7771;48.478;8.936;2022-07-29T01:41:14;7.20;;;6.50;;
15342;SDS011;7771;48.478;8.936;2022-07-29T01:43:42;7.40;;;6.32;;
15342;SDS011;7771;48.478;8.936;2022-07-29T01:46:11;8.43;;;6.40;;
15342;SDS011;7771;48.478;8.936;2022-07-29T01:48:37;7.00;;;6.35;;
15342;SDS011;7771;48.478;8.936;2022-07-29T01:51:04;7.50;;;6.80;;
15342;SDS011;7771;48.478;8.936;2022-07-29T01:53:46;7.50;;;6.80;;
15342;SDS011;7771;48.478;8.936;2022-07-29T01:56:12;8.13;;;7.03;;
15342;SDS011;7771;48.478;8.936;2022-07-29T01:58:40;7.30;;;6.50;;
15342;SDS011;7771;48.478;8.936;2022-07-29T02:01:08;7.82;;;6.60;;
15342;SDS011;7771;48.478;8.936;2022-07-29T02:03:34;7.00;;;6.30;;
15342;SDS011;7771;48.478;8.936;2022-07-29T02:06:01;7.12;;;6.40;;
15342;SDS011;7771;48.478;8.936;2022-07-29T02:08:28;7.80;;;6.82;;
15342;SDS011;7771;48.478;8.936;2022-07-29T02:10:54;7.90;;;6.87;;
15342;SDS011;7771;48.478;8.936;2022-07-29T02:13:22;8.10;;;7.30;;
15342;SDS011;7771;48.478;8.936;2022-07-29T02:15:48;8.60;;;7.15;;
15342;SDS011;7771;48.478;8.936;2022-07-29T02:18:16;8.73;;;7.25;;
15342;SDS011;7771;48.478;8.936;2022-07-29T02:20:45;8.13;;;6.50;;
15342;SDS011;7771;48.478;8.936;2022-07-29T02:23:11;6.78;;;6.18;;
15342;SDS011;7771;48.478;8.936;2022-07-29T02:25:37;6.85;;;6.25;;
15342;SDS011;7771;48.478;8.936;2022-07-29T02:28:05;8.70;;;6.50;;
15342;SDS011;7771;48.478;8.936;2022-07-29T02:30:31;7.25;;;6.55;;
15342;SDS011;7771;48.478;8.936;2022-07-29T02:32:57;6.57;;;5.97;;
15342;SDS011;7771;48.478;8.936;2022-07-29T02:35:24;7.45;;;6.72;;
15342;SDS011;7771;48.478;8.936;2022-07-29T02:37:51;6.65;;;6.05;;
15342;SDS011;7771;48.478;8.936;2022-07-29T02:40:24;6.95;;;5.62;;
15342;SDS011;7771;48.478;8.936;2022-07-29T02:42:51;6.97;;;5.93;;
15342;SDS011;7771;48.478;8.936;2022-07-29T02:45:19;6.87;;;6.28;;
15342;SDS011;7771;48.478;8.936;2022-07-29T02:47:47;6.10;;;5.50;;
15342;SDS011;7771;48.478;8.936;2022-07-29T02:50:15;6.50;;;5.90;;
15342;SDS011;7771;48.478;8.936;2022-07-29T02:52:41;6.82;;;6.22;;
15342;SDS011;7771;48.478;8.936;2022-07-29T02:55:16;6.32;;;5.65;;
15342;SDS011;7771;48.478;8.936;2022-07-29T02:57:46;7.87;;;6.40;;
15342;SDS011;7771;48.478;8.936;2022-07-29T03:00:13;7.57;;;6.75;;
15342;SDS011;7771;48.478;8.936;2022-07-29T03:02:42;6.45;;;5.85;;
15342;SDS011;7771;48.478;8.936;2022-07-29T03:05:09;6.35;;;5.85;;
15342;SDS011;7771;48.478;8.936;2022-07-29T03:07:36;6.60;;;6.00;;
15342;SDS011;7771;48.478;8.936;2022-07-29T03:10:03;8.38;;;6.90;;
15342;SDS011;7771;48.478;8.936;2022-07-29T03:12:30;6.68;;;6.07;;
15342;SDS011;7771;48.478;8.936;2022-07-29T03:14:57;6.65;;;6.07;;
15342;SDS011;7771;48.478;8.936;2022-07-29T03:17:23;6.55;;;5.95;;
15342;SDS011;7771;48.478;8.936;2022-07-29T03:19:50;5.97;;;5.37;;
15342;SDS011;7771;48.478;8.936;2022-07-29T03:22:17;5.57;;;5.07;;
15342;SDS011;7771;48.478;8.936;2022-07-29T03:24:44;5.35;;;4.93;;
15342;SDS011;7771;48.478;8.936;2022-07-29T03:27:11;7.90;;;5.50;;
15342;SDS011;7771;48.478;8.936;2022-07-29T03:29:39;6.72;;;5.32;;
15342;SDS011;7771;48.478;8.936;2022-07-29T03:32:06;5.78;;;5.20;;
15342;SDS011;7771;48.478;8.936;2022-07-29T03:34:33;6.28;;;5.68;;
15342;SDS011;7771;48.478;8.936;2022-07-29T03:36:59;5.62;;;5.10;;
15342;SDS011;7771;48.478;8.936;2022-07-29T03:39:27;8.18;;;5.15;;
15342;SDS011;7771;48.478;8.936;2022-07-29T03:41:55;6.30;;;5.57;;
15342;SDS011;7771;48.478;8.936;2022-07-29T03:44:21;5.95;;;5.45;;
15342;SDS011;7771;48.478;8.936;2022-07-29T03:46:48;5.70;;;5.00;;
15342;SDS011;7771;48.478;8.936;2022-07-29T03:49:15;6.07;;;5.47;;
15342;SDS011;7771;48.478;8.936;2022-07-29T03:51:42;6.57;;;5.50;;
15342;SDS011;7771;48.478;8.936;2022-07-29T03:54:08;6.35;;;5.55;;
15342;SDS011;7771;48.478;8.936;2022-07-29T03:56:38;5.93;;;5.43;;
15342;SDS011;7771;48.478;8.936;2022-07-29T03:59:04;5.45;;;4.93;;
15342;SDS011;7771;48.478;8.936;2022-07-29T04:01:32;6.18;;;5.32;;
15342;SDS011;7771;48.478;8.936;2022-07-29T04:03:58;5.97;;;4.53;;
15342;SDS011;7771;48.478;8.936;2022-07-29T04:06:25;5.18;;;4.65;;
15342;SDS011;7771;48.478;8.936;2022-07-29T04:08:52;5.45;;;4.45;;
15342;SDS011;7771;48.478;8.936;2022-07-29T04:11:19;6.73;;;4.47;;
15342;SDS011;7771;48.478;8.936;2022-07-29T04:13:47;4.43;;;4.10;;
15342;SDS011;7771;48.478;8.936;2022-07-29T04:16:14;5.57;;;4.40;;
15342;SDS011;7771;48.478;8.936;2022-07-29T04:18:41;4.97;;;4.47;;
15342;SDS011;7771;48.478;8.936;2022-07-29T04:21:08;5.62;;;4.20;;
15342;SDS011;7771;48.478;8.936;2022-07-29T04:23:34;5.25;;;4.45;;
15342;SDS011;7771;48.478;8.936;2022-07-29T04:26:01;5.12;;;4.05;;
15342;SDS011;7771;48.478;8.936;2022-07-29T04:28:28;4.95;;;4.55;;
15342;SDS011;7771;48.478;8.936;2022-07-29T04:30:56;4.80;;;4.40;;
15342;SDS011;7771;48.478;8.936;2022-07-29T04:33:23;6.70;;;4.72;;
15342;SDS011;7771;48.478;8.936;2022-07-29T04:35:49;4.72;;;4.22;;
15342;SDS011;7771;48.478;8.936;2022-07-29T04:38:16;5.87;;;4.53;;
15342;SDS011;7771;48.478;8.936;2022-07-29T04:40:43;4.47;;;4.10;;
15342;SDS011;7771;48.478;8.936;2022-07-29T04:43:10;5.80;;;4.28;;
15342;SDS011;7771;48.478;8.936;2022-07-29T04:45:37;5.80;;;4.07;;
15342;SDS011;7771;48.478;8.936;2022-07-29T04:48:04;4.60;;;4.20;;
15342;SDS011;7771;48.478;8.936;2022-07-29T04:50:30;4.62;;;4.22;;
15342;SDS011;7771;48.478;8.936;2022-07-29T04:52:58;4.35;;;4.05;;
15342;SDS011;7771;48.478;8.936;2022-07-29T04:55:24;5.05;;;4.47;;
15342;SDS011;7771;48.478;8.936;2022-07-29T04:57:51;7.45;;;6.60;;
15342;SDS011;7771;48.478;8.936;2022-07-29T05:00:18;5.70;;;4.60;;
15342;SDS011;7771;48.478;8.936;2022-07-29T05:02:44;4.20;;;3.67;;
15342;SDS011;7771;48.478;8.936;2022-07-29T05:05:11;4.18;;;3.75;;
15342;SDS011;7771;48.478;8.936;2022-07-29T05:07:39;4.12;;;3.72;;
15342;SDS011;7771;48.478;8.936;2022-07-29T05:10:07;4.43;;;4.03;;
15342;SDS011;7771;48.478;8.936;2022-07-29T05:12:34;3.50;;;3.20;;
15342;SDS011;7771;48.478;8.936;2022-07-29T05:15:00;4.12;;;3.08;;
15342;SDS011;7771;48.478;8.936;2022-07-29T05:17:27;3.75;;;3.45;;
15342;SDS011;7771;48.478;8.936;2022-07-29T05:19:54;6.93;;;4.10;;
15342;SDS011;7771;48.478;8.936;2022-07-29T05:22:20;5.72;;;4.25;;
15342;SDS011;7771;48.478;8.936;2022-07-29T05:24:47;4.97;;;4.37;;
15342;SDS011;7771;48.478;8.936;2022-07-29T05:27:14;4.70;;;4.30;;
15342;SDS011;7771;48.478;8.936;2022-07-29T05:29:42;4.95;;;4.07;;
15342;SDS011;7771;48.478;8.936;2022-07-29T05:32:09;4.85;;;4.45;;
15342;SDS011;7771;48.478;8.936;2022-07-29T05:34:36;5.62;;;4.50;;
15342;SDS011;7771;48.478;8.936;2022-07-29T05:37:03;5.05;;;4.62;;
15342;SDS011;7771;48.478;8.936;2022-07-29T05:39:30;4.93;;;3.90;;
15342;SDS011;7771;48.478;8.936;2022-07-29T05:41:57;5.05;;;4.32;;
15342;SDS011;7771;48.478;8.936;2022-07-29T05:44:25;4.93;;;4.53;;
15342;SDS011;7771;48.478;8.936;2022-07-29T05:46:52;5.72;;;4.37;;
15342;SDS011;7771;48.478;8.936;2022-07-29T05:49:20;4.85;;;4.45;;
15342;SDS011;7771;48.478;8.936;2022-07-29T05:51:47;4.90;;;4.40;;
15342;SDS011;7771;48.478;8.936;2022-07-29T05:54:14;5.07;;;4.30;;
15342;SDS011;7771;48.478;8.936;2022-07-29T05:56:42;4.90;;;4.10;;
15342;SDS011;7771;48.478;8.936;2022-07-29T05:59:08;5.15;;;3.92;;
15342;SDS011;7771;48.478;8.936;2022-07-29T06:01:35;4.37;;;4.03;;
15342;SDS011;7771;48.478;8.936;2022-07-29T06:04:02;5.72;;;4.82;;
15342;SDS011;7771;48.478;8.936;2022-07-29T06:06:29;4.95;;;4.37;;
15342;SDS011;7771;48.478;8.936;2022-07-29T06:08:57;6.55;;;4.40;;
15342;SDS011;7771;48.478;8.936;2022-07-29T06:11:25;5.65;;;5.03;;
15342;SDS011;7771;48.478;8.936;2022-07-29T06:13:52;5.85;;;4.50;;
15342;SDS011;7771;48.478;8.936;2022-07-29T06:16:19;5.95;;;4.35;;
15342;SDS011;7771;48.478;8.936;2022-07-29T06:18:47;4.18;;;3.78;;
15342;SDS011;7771;48.478;8.936;2022-07-29T06:21:14;5.05;;;4.65;;
15342;SDS011;7771;48.478;8.936;2022-07-29T06:23:41;6.10;;;4.78;;
15342;SDS011;7771;48.478;8.936;2022-07-29T06:26:08;7.90;;;5.90;;
15342;SDS011;7771;48.478;8.936;2022-07-29T06:28:34;6.12;;;5.50;;
15342;SDS011;7771;48.478;8.936;2022-07-29T06:31:01;6.60;;;5.07;;
15342;SDS011;7771;48.478;8.936;2022-07-29T06:33:27;8.90;;;5.22;;
15342;SDS011;7771;48.478;8.936;2022-07-29T06:35:54;7.97;;;6.35;;
15342;SDS011;7771;48.478;8.936;2022-07-29T06:38:22;6.25;;;5.15;;
15342;SDS011;7771;48.478;8.936;2022-07-29T06:40:48;6.85;;;5.15;;
15342;SDS011;7771;48.478;8.936;2022-07-29T06:43:21;5.82;;;5.00;;
15342;SDS011;7771;48.478;8.936;2022-07-29T06:45:48;5.70;;;5.12;;
15342;SDS011;7771;48.478;8.936;2022-07-29T06:48:14;4.53;;;4.12;;
15342;SDS011;7771;48.478;8.936;2022-07-29T06:50:41;5.05;;;4.55;;
15342;SDS011;7771;48.478;8.936;2022-07-29T06:53:07;6.03;;;3.55;;
15342;SDS011;7771;48.478;8.936;2022-07-29T06:55:34;4.70;;;3.87;;
15342;SDS011;7771;48.478;8.936;2022-07-29T06:58:01;5.55;;;3.92;;
15342;SDS011;7771;48.478;8.936;2022-07-29T07:00:27;4.85;;;3.65;;
15342;SDS011;7771;48.478;8.936;2022-07-29T07:02:55;4.95;;;3.95;;
15342;SDS011;7771;48.478;8.936;2022-07-29T07:05:22;4.50;;;3.72;;
15342;SDS011;7771;48.478;8.936;2022-07-29T07:07:49;4.50;;;3.97;;
15342;SDS011;7771;48.478;8.936;2022-07-29T07:10:17;5.18;;;3.97;;
15342;SDS011;7771;48.478;8.936;2022-07-29T07:12:44;4.75;;;3.95;;
15342;SDS011;7771;48.478;8.936;2022-07-29T07:15:11;4.05;;;3.55;;
15342;SDS011;7771;48.478;8.936;2022-07-29T07:17:39;5.12;;;4.25;;
15342;SDS011;7771;48.478;8.936;2022-07-29T07:20:06;4.22;;;3.83;;
15342;SDS011;7771;48.478;8.936;2022-07-29T07:22:33;4.00;;;3.65;;
15342;SDS011;7771;48.478;8.936;2022-07-29T07:24:59;5.18;;;4.05;;
15342;SDS011;7771;48.478;8.936;2022-07-29T07:27:26;4.12;;;3.70;;
15342;SDS011;7771;48.478;8.936;2022-07-29T07:29:52;4.82;;;3.20;;
15342;SDS011;7771;48.478;8.936;2022-07-29T07:32:20;3.42;;;3.10;;
15342;SDS011;7771;48.478;8.936;2022-07-29T07:34:47;2.72;;;2.53;;
15342;SDS011;7771;48.478;8.936;2022-07-29T07:37:14;3.45;;;3.15;;
15342;SDS011;7771;48.478;8.936;2022-07-29T07:39:41;3.33;;;2.83;;
15342;SDS011;7771;48.478;8.936;2022-07-29T07:42:08;3.90;;;3.15;;
15342;SDS011;7771;48.478;8.936;2022-07-29T07:44:34;4.75;;;2.75;;
15342;SDS011;7771;48.478;8.936;2022-07-29T07:47:01;4.00;;;2.70;;
15342;SDS011;7771;48.478;8.936;2022-07-29T07:49:27;2.97;;;2.42;;
15342;SDS011;7771;48.478;8.936;2022-07-29T07:51:54;3.10;;;2.78;;
15342;SDS011;7771;48.478;8.936;2022-07-29T07:54:21;4.45;;;3.20;;
15342;SDS011;7771;48.478;8.936;2022-07-29T07:56:48;6.60;;;5.00;;
15342;SDS011;7771;48.478;8.936;2022-07-29T07:59:16;2.97;;;2.78;;
15342;SDS011;7771;48.478;8.936;2022-07-29T08:01:43;5.12;;;2.67;;
15342;SDS011;7771;48.478;8.936;2022-07-29T08:04:10;4.00;;;2.42;;
15342;SDS011;7771;48.478;8.936;2022-07-29T08:06:37;3.95;;;2.92;;
15342;SDS011;7771;48.478;8.936;2022-07-29T08:09:05;3.85;;;2.90;;
15342;SDS011;7771;48.478;8.936;2022-07-29T08:11:32;3.20;;;2.87;;
15342;SDS011;7771;48.478;8.936;2022-07-29T08:13:59;3.55;;;2.85;;
15342;SDS011;7771;48.478;8.936;2022-07-29T08:16:27;4.15;;;2.85;;
15342;SDS011;7771;48.478;8.936;2022-07-29T08:18:53;6.00;;;3.25;;
15342;SDS011;7771;48.478;8.936;2022-07-29T08:21:20;3.58;;;3.03;;
15342;SDS011;7771;48.478;8.936;2022-07-29T08:23:47;3.33;;;2.87;;
15342;SDS011;7771;48.478;8.936;2022-07-29T08:26:15;3.72;;;2.83;;
15342;SDS011;7771;48.478;8.936;2022-07-29T08:28:43;4.45;;;3.08;;
15342;SDS011;7771;48.478;8.936;2022-07-29T08:31:12;4.68;;;3.12;;
15342;SDS011;7771;48.478;8.936;2022-07-29T08:33:39;3.67;;;2.53;;
15342;SDS011;7771;48.478;8.936;2022-07-29T08:36:06;4.78;;;3.35;;
15342;SDS011;7771;48.478;8.936;2022-07-29T08:38:33;4.47;;;3.10;;
15342;SDS011;7771;48.478;8.936;2022-07-29T08:41:00;5.75;;;3.37;;
15342;SDS011;7771;48.478;8.936;2022-07-29T08:43:28;4.70;;;3.28;;
15342;SDS011;7771;48.478;8.936;2022-07-29T08:45:55;3.22;;;2.92;;
15342;SDS011;7771;48.478;8.936;2022-07-29T08:48:23;5.87;;;3.75;;
15342;SDS011;7771;48.478;8.936;2022-07-29T08:50:52;4.85;;;3.00;;
15342;SDS011;7771;48.478;8.936;2022-07-29T08:53:19;3.75;;;3.33;;
15342;SDS011;7771;48.478;8.936;2022-07-29T08:55:47;4.43;;;3.30;;
15342;SDS011;7771;48.478;8.936;2022-07-29T08:58:14;4.00;;;3.60;;
15342;SDS011;7771;48.478;8.936;2022-07-29T09:00:42;3.40;;;3.00;;
15342;SDS011;7771;48.478;8.936;2022-07-29T09:03:08;4.40;;;3.17;;
15342;SDS011;7771;48.478;8.936;2022-07-29T09:05:34;5.35;;;3.62;;
15342;SDS011;7771;48.478;8.936;2022-07-29T09:08:01;5.30;;;3.35;;
15342;SDS011;7771;48.478;8.936;2022-07-29T09:10:28;3.42;;;3.12;;
15342;SDS011;7771;48.478;8.936;2022-07-29T09:12:54;3.55;;;3.22;;
15342;SDS011;7771;48.478;8.936;2022-07-29T09:15:21;4.00;;;3.60;;
15342;SDS011;7771;48.478;8.936;2022-07-29T09:17:48;3.95;;;3.50;;
15342;SDS011;7771;48.478;8.936;2022-07-29T09:20:16;4.25;;;3.37;;
15342;SDS011;7771;48.478;8.936;2022-07-29T09:22:42;4.35;;;3.55;;
15342;SDS011;7771;48.478;8.936;2022-07-29T09:25:11;3.80;;;3.40;;
15342;SDS011;7771;48.478;8.936;2022-07-29T09:27:37;3.97;;;3.30;;
15342;SDS011;7771;48.478;8.936;2022-07-29T09:30:05;5.35;;;3.70;;
15342;SDS011;7771;48.478;8.936;2022-07-29T09:32:32;6.18;;;3.40;;
15342;SDS011;7771;48.478;8.936;2022-07-29T09:37:36;4.87;;;3.70;;
15342;SDS011;7771;48.478;8.936;2022-07-29T09:40:11;3.62;;;3.33;;
15342;SDS011;7771;48.478;8.936;2022-07-29T09:42:36;3.37;;;3.08;;
15342;SDS011;7771;48.478;8.936;2022-07-29T09:45:04;4.93;;;3.65;;
15342;SDS011;7771;48.478;8.936;2022-07-29T09:47:46;6.57;;;3.75;;
15342;SDS011;7771;48.478;8.936;2022-07-29T09:50:12;3.97;;;3.40;;
15342;SDS011;7771;48.478;8.936;2022-07-29T09:55:14;4.87;;;3.58;;
15342;SDS011;7771;48.478;8.936;2022-07-29T09:57:41;5.53;;;3.70;;
15342;SDS011;7771;48.478;8.936;2022-07-29T10:00:08;3.62;;;3.33;;
15342;SDS011;7771;48.478;8.936;2022-07-29T10:02:37;4.03;;;3.58;;
15342;SDS011;7771;48.478;8.936;2022-07-29T10:05:05;5.87;;;3.25;;
15342;SDS011;7771;48.478;8.936;2022-07-29T10:10:10;5.55;;;3.30;;
15342;SDS011;7771;48.478;8.936;2022-07-29T10:15:16;3.03;;;2.83;;
15342;SDS011;7771;48.478;8.936;2022-07-29T10:17:43;5.28;;;2.90;;
15342;SDS011;7771;48.478;8.936;2022-07-29T10:20:10;5.25;;;3.35;;
15342;SDS011;7771;48.478;8.936;2022-07-29T10:22:36;3.58;;;3.10;;
15342;SDS011;7771;48.478;8.936;2022-07-29T10:25:03;4.32;;;3.35;;
15342;SDS011;7771;48.478;8.936;2022-07-29T10:27:29;2.87;;;2.67;;
15342;SDS011;7771;48.478;8.936;2022-07-29T10:29:57;4.43;;;3.42;;
15342;SDS011;7771;48.478;8.936;2022-07-29T10:35:21;3.75;;;3.37;;
15342;SDS011;7771;48.478;8.936;2022-07-29T10:37:52;5.68;;;3.62;;
15342;SDS011;7771;48.478;8.936;2022-07-29T10:40:36;3.60;;;3.30;;
15342;SDS011;7771;48.478;8.936;2022-07-29T10:45:44;4.93;;;3.97;;
15342;SDS011;7771;48.478;8.936;2022-07-29T10:48:10;6.75;;;3.28;;
15342;SDS011;7771;48.478;8.936;2022-07-29T10:53:45;4.37;;;2.78;;
15342;SDS011;7771;48.478;8.936;2022-07-29T10:55:52;3.10;;;2.90;;
15342;SDS011;7771;48.478;8.936;2022-07-29T10:58:19;3.58;;;2.70;;
15342;SDS011;7771;48.478;8.936;2022-07-29T11:00:47;2.78;;;2.58;;
15342;SDS011;7771;48.478;8.936;2022-07-29T11:05:54;3.55;;;2.90;;
15342;SDS011;7771;48.478;8.936;2022-07-29T11:08:21;3.42;;;3.12;;
15342;SDS011;7771;48.478;8.936;2022-07-29T11:10:49;4.12;;;3.00;;
15342;SDS011;7771;48.478;8.936;2022-07-29T11:16:08;3.22;;;2.90;;
15342;SDS011;7771;48.478;8.936;2022-07-29T11:18:35;6.65;;;2.87;;
15342;SDS011;7771;48.478;8.936;2022-07-29T11:21:01;2.60;;;2.40;;
15342;SDS011;7771;48.478;8.936;2022-07-29T11:23:29;3.22;;;2.90;;
15342;SDS011;7771;48.478;8.936;2022-07-29T11:28:51;6.75;;;3.20;;
15342;SDS011;7771;48.478;8.936;2022-07-29T11:31:34;3.50;;;3.20;;
15342;SDS011;7771;48.478;8.936;2022-07-29T11:36:37;5.35;;;3.00;;
15342;SDS011;7771;48.478;8.936;2022-07-29T11:41:43;3.78;;;3.45;;
15342;SDS011;7771;48.478;8.936;2022-07-29T11:44:09;3.62;;;2.97;;
15342;SDS011;7771;48.478;8.936;2022-07-29T11:46:42;3.30;;;3.00;;
15342;SDS011;7771;48.478;8.936;2022-07-29T11:49:11;3.78;;;3.20;;
15342;SDS011;7771;48.478;8.936;2022-07-29T11:51:39;3.90;;;3.50;;
15342;SDS011;7771;48.478;8.936;2022-07-29T11:54:06;3.25;;;2.95;;
15342;SDS011;7771;48.478;8.936;2022-07-29T11:56:33;3.78;;;3.20;;
15342;SDS011;7771;48.478;8.936;2022-07-29T11:59:03;3.45;;;2.87;;
15342;SDS011;7771;48.478;8.936;2022-07-29T12:01:30;3.00;;;2.65;;
15342;SDS011;7771;48.478;8.936;2022-07-29T12:04:02;3.17;;;2.87;;
15342;SDS011;7771;48.478;8.936;2022-07-29T12:06:29;4.95;;;3.03;;
15342;SDS011;7771;48.478;8.936;2022-07-29T12:08:57;3.45;;;3.15;;
15342;SDS011;7771;48.478;8.936;2022-07-29T12:11:23;4.05;;;2.80;;
15342;SDS011;7771;48.478;8.936;2022-07-29T12:13:50;4.25;;;3.12;;
15342;SDS011;7771;48.478;8.936;2022-07-29T12:16:17;3.12;;;2.92;;
15342;SDS011;7771;48.478;8.936;2022-07-29T12:18:54;4.22;;;3.90;;
15342;SDS011;7771;48.478;8.936;2022-07-29T12:21:25;4.97;;;2.90;;
15342;SDS011;7771;48.478;8.936;2022-07-29T12:23:52;3.58;;;3.30;;
15342;SDS011;7771;48.478;8.936;2022-07-29T12:26:18;3.85;;;3.42;;
15342;SDS011;7771;48.478;8.936;2022-07-29T12:28:46;4.10;;;3.15;;
15342;SDS011;7771;48.478;8.936;2022-07-29T12:31:13;3.10;;;2.90;;
15342;SDS011;7771;48.478;8.936;2022-07-29T12:33:40;3.62;;;3.33;;
15342;SDS011;7771;48.478;8.936;2022-07-29T12:36:08;6.55;;;3.78;;
15342;SDS011;7771;48.478;8.936;2022-07-29T12:38:35;4.10;;;3.70;;
15342;SDS011;7771;48.478;8.936;2022-07-29T12:41:03;6.50;;;3.47;;
15342;SDS011;7771;48.478;8.936;2022-07-29T12:43:30;4.10;;;3.62;;
15342;SDS011;7771;48.478;8.936;2022-07-29T12:45:57;3.40;;;3.10;;
15342;SDS011;7771;48.478;8.936;2022-07-29T12:51:01;3.83;;;3.50;;
15342;SDS011;7771;48.478;8.936;2022-07-29T12:53:27;3.87;;;3.58;;
15342;SDS011;7771;48.478;8.936;2022-07-29T12:55:55;3.30;;;3.00;;
15342;SDS011;7771;48.478;8.936;2022-07-29T12:58:27;2.83;;;2.40;;
15342;SDS011;7771;48.478;8.936;2022-07-29T13:01:00;2.40;;;2.30;;
15342;SDS011;7771;48.478;8.936;2022-07-29T13:03:27;3.62;;;2.60;;
15342;SDS011;7771;48.478;8.936;2022-07-29T13:05:53;3.35;;;3.08;;
15342;SDS011;7771;48.478;8.936;2022-07-29T13:08:20;4.03;;;3.72;;
15342;SDS011;7771;48.478;8.936;2022-07-29T13:10:47;8.90;;;6.57;;
15342;SDS011;7771;48.478;8.936;2022-07-29T13:13:14;5.87;;;5.35;;
15342;SDS011;7771;48.478;8.936;2022-07-29T13:15:41;4.75;;;4.32;;
15342;SDS011;7771;48.478;8.936;2022-07-29T13:18:26;3.17;;;2.87;;
15342;SDS011;7771;48.478;8.936;2022-07-29T13:20:39;3.47;;;3.17;;
15342;SDS011;7771;48.478;8.936;2022-07-29T13:23:06;3.80;;;3.45;;
15342;SDS011;7771;48.478;8.936;2022-07-29T13:25:33;4.90;;;3.53;;
15342;SDS011;7771;48.478;8.936;2022-07-29T13:28:00;4.70;;;3.75;;
15342;SDS011;7771;48.478;8.936;2022-07-29T13:30:28;4.62;;;3.85;;
15342;SDS011;7771;48.478;8.936;2022-07-29T13:32:55;6.30;;;4.28;;
15342;SDS011;7771;48.478;8.936;2022-07-29T13:35:22;4.12;;;3.72;;
15342;SDS011;7771;48.478;8.936;2022-07-29T13:37:50;4.18;;;3.42;;
15342;SDS011;7771;48.478;8.936;2022-07-29T13:40:17;3.37;;;3.10;;
15342;SDS011;7771;48.478;8.936;2022-07-29T13:42:44;4.05;;;3.40;;
15342;SDS011;7771;48.478;8.936;2022-07-29T13:45:12;4.07;;;3.33;;
15342;SDS011;7771;48.478;8.936;2022-07-29T13:47:39;3.62;;;3.10;;
15342;SDS011;7771;48.478;8.936;2022-07-29T13:50:06;3.62;;;3.33;;
15342;SDS011;7771;48.478;8.936;2022-07-29T13:52:33;4.50;;;3.60;;
15342;SDS011;7771;48.478;8.936;2022-07-29T13:54:59;3.62;;;3.33;;
15342;SDS011;7771;48.478;8.936;2022-07-29T13:57:26;3.90;;;3.42;;
15342;SDS011;7771;48.478;8.936;2022-07-29T13:59:52;5.57;;;3.50;;
15342;SDS011;7771;48.478;8.936;2022-07-29T14:02:19;3.50;;;3.08;;
15342;SDS011;7771;48.478;8.936;2022-07-29T14:04:46;4.37;;;3.08;;
15342;SDS011;7771;48.478;8.936;2022-07-29T14:07:12;3.90;;;3.35;;
15342;SDS011;7771;48.478;8.936;2022-07-29T14:09:39;4.10;;;3.53;;
15342;SDS011;7771;48.478;8.936;2022-07-29T14:12:05;3.78;;;3.47;;
15342;SDS011;7771;48.478;8.936;2022-07-29T14:14:32;3.97;;;3.62;;
15342;SDS011;7771;48.478;8.936;2022-07-29T14:16:59;3.80;;;3.50;;
15342;SDS011;7771;48.478;8.936;2022-07-29T14:19:25;3.78;;;3.05;;
15342;SDS011;7771;48.478;8.936;2022-07-29T14:21:52;3.60;;;3.30;;
15342;SDS011;7771;48.478;8.936;2022-07-29T14:24:19;3.55;;;3.33;;
15342;SDS011;7771;48.478;8.936;2022-07-29T14:26:45;3.97;;;3.55;;
15342;SDS011;7771;48.478;8.936;2022-07-29T14:29:12;4.00;;;3.47;;
15342;SDS011;7771;48.478;8.936;2022-07-29T14:31:39;6.15;;;3.62;;
15342;SDS011;7771;48.478;8.936;2022-07-29T14:34:06;3.15;;;2.85;;
15342;SDS011;7771;48.478;8.936;2022-07-29T14:36:34;3.42;;;3.08;;
15342;SDS011;7771;48.478;8.936;2022-07-29T14:39:01;4.05;;;3.72;;
15342;SDS011;7771;48.478;8.936;2022-07-29T14:41:29;3.95;;;3.30;;
15342;SDS011;7771;48.478;8.936;2022-07-29T14:43:56;5.30;;;3.75;;
15342;SDS011;7771;48.478;8.936;2022-07-29T14:46:23;4.35;;;3.70;;
15342;SDS011;7771;48.478;8.936;2022-07-29T14:48:51;3.75;;;3.45;;
15342;SDS011;7771;48.478;8.936;2022-07-29T14:51:18;3.65;;;3.35;;
15342;SDS011;7771;48.478;8.936;2022-07-29T14:53:45;3.62;;;3.20;;
15342;SDS011;7771;48.478;8.936;2022-07-29T14:56:11;3.50;;;3.12;;
15342;SDS011;7771;48.478;8.936;2022-07-29T14:58:38;4.18;;;3.83;;
15342;SDS011;7771;48.478;8.936;2022-07-29T15:01:04;4.10;;;3.75;;
15342;SDS011;7771;48.478;8.936;2022-07-29T15:03:31;4.55;;;4.15;;
15342;SDS011;7771;48.478;8.936;2022-07-29T15:05:57;4.00;;;3.40;;
15342;SDS011;7771;48.478;8.936;2022-07-29T15:08:24;3.67;;;3.37;;
15342;SDS011;7771;48.478;8.936;2022-07-29T15:10:51;3.80;;;3.50;;
15342;SDS011;7771;48.478;8.936;2022-07-29T15:13:18;3.35;;;3.05;;
15342;SDS011;7771;48.478;8.936;2022-07-29T15:15:45;4.15;;;3.67;;
15342;SDS011;7771;48.478;8.936;2022-07-29T15:18:12;4.35;;;3.78;;
15342;SDS011;7771;48.478;8.936;2022-07-29T15:20:38;5.03;;;3.62;;
15342;SDS011;7771;48.478;8.936;2022-07-29T15:23:06;4.20;;;3.80;;
15342;SDS011;7771;48.478;8.936;2022-07-29T15:25:33;3.90;;;3.50;;
15342;SDS011;7771;48.478;8.936;2022-07-29T15:28:00;4.12;;;3.37;;
15342;SDS011;7771;48.478;8.936;2022-07-29T15:30:29;3.90;;;3.50;;
15342;SDS011;7771;48.478;8.936;2022-07-29T15:32:55;3.72;;;3.42;;
15342;SDS011;7771;48.478;8.936;2022-07-29T15:35:22;3.75;;;3.45;;